Time;durP1;ratioP1;P1;durP2;ratioP2;P2;SDS_P1;SDS_P2;PMS_P1;PMS_P2;Temp;Humidity;BMP_temperature;BMP_pressure;BME280_temperature;BME280_humidity;BME280_pressure;Samples;Min_cycle;Max_cycle;Signal;HPM_P1;HPM_P2
2021/04/02 00:01:14;;;;;;;8.27;4.63;;;;;;;14.13;57.47;100716.00;4979152;28;20042;-63
2021/04/02 00:03:48;;;;;;;5.40;4.45;;;;;;;14.12;57.65;100716.84;4994392;28;20050;-63
2021/04/02 00:06:24;;;;;;;9.25;5.15;;;;;;;14.12;57.63;100711.63;4995989;28;20030;-63
2021/04/02 00:09:02;;;;;;;6.57;5.10;;;;;;;14.12;57.26;100716.84;4994808;28;20030;-63
2021/04/02 00:11:36;;;;;;;10.10;5.25;;;;;;;14.11;57.47;100712.47;4996084;28;20034;-63
2021/04/02 00:14:14;;;;;;;9.40;5.03;;;;;;;14.09;57.57;100715.09;4979361;28;20398;-63
2021/04/02 00:16:47;;;;;;;7.47;5.55;;;;;;;14.08;57.32;100709.88;4978654;28;20053;-63
2021/04/02 00:19:18;;;;;;;9.73;5.20;;;;;;;14.07;57.35;100716.78;4995698;28;20121;-63
2021/04/02 00:21:49;;;;;;;10.52;5.80;;;;;;;14.07;57.61;100708.97;4978185;28;20097;-63
2021/04/02 00:24:25;;;;;;;4.95;4.47;;;;;;;14.07;57.78;100713.31;4994863;28;20038;-64
2021/04/02 00:26:53;;;;;;;6.72;5.15;;;;;;;14.06;57.46;100712.44;4978473;28;20038;-61
2021/04/02 00:29:24;;;;;;;6.57;5.10;;;;;;;14.05;57.68;100715.91;4994502;28;20133;-61
2021/04/02 00:31:55;;;;;;;8.35;5.90;;;;;;;14.05;57.59;100715.91;4978778;28;20093;-61
2021/04/02 00:34:29;;;;;;;9.00;4.75;;;;;;;14.03;57.65;100715.00;4978442;28;20034;-62
2021/04/02 00:37:03;;;;;;;7.57;5.35;;;;;;;14.03;57.60;100706.31;4977990;28;20043;-61
2021/04/02 00:39:37;;;;;;;9.73;6.78;;;;;;;14.01;57.63;100712.38;4994005;28;20062;-61
2021/04/02 00:42:08;;;;;;;;;;;;;;;13.99;57.42;100705.41;4978409;28;20081;-61
2021/04/02 00:44:44;;;;;;;11.73;5.45;;;;;;;13.97;57.55;100710.59;4977747;28;20380;-61
2021/04/02 00:47:21;;;;;;;8.85;5.88;;;;;;;13.98;57.65;100708.88;4994255;28;20034;-61
2021/04/02 00:49:55;;;;;;;9.48;7.20;;;;;;;13.97;57.61;100713.19;4994656;28;20417;-61
2021/04/02 00:52:29;;;;;;;10.40;7.00;;;;;;;13.96;57.67;100710.59;4977678;28;20516;-61
2021/04/02 00:55:08;;;;;;;7.80;6.13;;;;;;;13.95;57.45;100709.69;4977522;28;20401;-61
2021/04/02 00:57:42;;;;;;;7.95;5.93;;;;;;;13.94;57.66;100712.28;4994683;28;20502;-61
2021/04/02 01:00:14;;;;;;;;;;;;;;;13.91;57.71;100717.44;4978425;28;20046;-61
2021/04/02 01:02:44;;;;;;;9.52;6.43;;;;;;;13.91;57.73;100709.63;4978059;28;19943;-61
2021/04/02 01:05:34;;;;;;;9.23;6.85;;;;;;;13.90;57.35;100711.38;4995030;28;20038;-61
2021/04/02 01:08:13;;;;;;;11.38;6.90;;;;;;;13.88;57.40;100702.66;4977308;28;20038;-61
2021/04/02 01:10:45;;;;;;;11.20;7.00;;;;;;;13.90;57.69;100702.66;4993639;28;20367;-61
2021/04/02 01:13:18;;;;;;;10.55;7.57;;;;;;;13.88;57.46;100704.38;4977126;28;20034;-61
2021/04/02 01:15:54;;;;;;;10.25;6.97;;;;;;;13.86;57.77;100706.97;4994199;28;20030;-63
2021/04/02 01:18:29;;;;;;;9.60;7.68;;;;;;;13.86;57.35;100705.22;4995076;28;20042;-61
2021/04/02 01:21:28;;;;;;;8.85;6.68;;;;;;;13.86;57.38;100706.97;4993809;28;20034;-61
2021/04/02 01:23:59;;;;;;;7.85;6.55;;;;;;;13.84;57.48;100704.38;4985106;28;20509;-62
2021/04/02 01:26:44;;;;;;;10.50;7.25;;;;;;;13.82;57.41;100700.88;4994112;28;20122;-62
2021/04/02 01:29:15;;;;;;;10.43;7.10;;;;;;;13.83;57.34;100702.63;4993337;28;20456;-61
2021/04/02 01:31:51;;;;;;;12.75;7.45;;;;;;;13.81;57.27;100701.72;4977273;28;20129;-61
2021/04/02 01:34:24;;;;;;;10.38;7.30;;;;;;;13.80;57.42;100696.47;4993368;28;20034;-61
2021/04/02 01:37:00;;;;;;;10.95;6.72;;;;;;;13.80;57.71;100699.06;4992957;28;20152;-61
2021/04/02 01:39:39;;;;;;;8.75;6.95;;;;;;;13.78;57.67;100695.59;4993348;28;20042;-61
2021/04/02 01:42:11;;;;;;;7.72;6.63;;;;;;;13.77;57.49;100699.91;4993318;28;20038;-61
2021/04/02 01:44:49;;;;;;;10.13;6.97;;;;;;;13.77;57.25;100701.66;4994430;28;20165;-61
2021/04/02 01:47:24;;;;;;;9.32;6.80;;;;;;;13.75;57.55;100693.81;4976790;28;20457;-61
2021/04/02 01:50:01;;;;;;;8.82;6.72;;;;;;;13.74;57.18;100697.25;4993362;28;20093;-61
2021/04/02 01:52:33;;;;;;;9.05;6.65;;;;;;;13.73;57.70;100698.13;4993481;28;20117;-61
2021/04/02 01:55:09;;;;;;;;;;;;;;;13.69;57.72;100694.59;4993418;28;20044;-61
2021/04/02 01:57:41;;;;;;;11.70;6.50;;;;;;;13.69;57.49;100698.94;4993150;28;20020;-63
2021/04/02 02:00:23;;;;;;;9.82;6.95;;;;;;;13.69;57.45;100701.56;4993274;28;20554;-63
2021/04/02 02:02:53;;;;;;;9.85;6.95;;;;;;;13.67;57.96;100696.31;4994396;28;20092;-63
2021/04/02 02:05:23;;;;;;;11.32;6.80;;;;;;;13.66;57.82;100699.75;4976662;28;20460;-63
2021/04/02 02:07:58;;;;;;;8.77;6.53;;;;;;;13.65;57.67;100700.63;4992697;28;20041;-63
2021/04/02 02:10:33;;;;;;;7.65;6.00;;;;;;;13.64;57.54;100704.06;4976430;28;20041;-63
2021/04/02 02:13:08;;;;;;;7.90;6.63;;;;;;;13.62;57.51;100702.31;4976750;28;20048;-63
2021/04/02 02:15:43;;;;;;;9.27;6.55;;;;;;;13.61;57.46;100703.16;4994237;28;20041;-61
2021/04/02 02:18:19;;;;;;;8.02;6.05;;;;;;;13.60;57.72;100710.13;4992529;28;20106;-61
2021/04/02 02:20:52;;;;;;;10.52;6.95;;;;;;;13.59;57.66;100710.97;4976419;28;20092;-61
2021/04/02 02:23:27;;;;;;;8.50;6.28;;;;;;;13.57;57.82;100707.47;4993821;28;20118;-61
2021/04/02 02:25:58;;;;;;;9.43;5.53;;;;;;;13.57;58.00;100712.66;4994562;28;20110;-61
2021/04/02 02:28:34;;;;;;;9.82;7.10;;;;;;;13.55;57.69;100709.16;4981101;28;20030;-61
2021/04/02 02:31:07;;;;;;;10.65;7.45;;;;;;;13.53;57.62;100703.06;4996635;28;20053;-61
2021/04/02 02:33:43;;;;;;;10.18;6.30;;;;;;;13.52;57.73;100704.78;4998318;28;20077;-61
2021/04/02 02:36:18;;;;;;;9.18;6.55;;;;;;;13.49;57.76;100702.13;4980667;28;20474;-61
2021/04/02 02:38:56;;;;;;;8.32;6.13;;;;;;;13.47;57.63;100703.84;4997673;28;20053;-62
2021/04/02 02:41:29;;;;;;;8.95;5.68;;;;;;;13.47;57.62;100700.38;4996731;28;20038;-62
2021/04/02 02:44:06;;;;;;;8.82;6.90;;;;;;;13.46;57.71;100707.28;4996895;28;20053;-62
2021/04/02 02:46:40;;;;;;;11.98;6.93;;;;;;;13.46;57.70;100714.25;4980305;28;20038;-62
2021/04/02 02:49:15;;;;;;;10.70;6.15;;;;;;;13.43;57.68;100711.59;4997484;28;20034;-62
2021/04/02 02:51:48;;;;;;;9.23;6.00;;;;;;;13.43;57.82;100706.38;4980055;28;20086;-62
2021/04/02 02:54:22;;;;;;;9.60;6.40;;;;;;;13.41;57.70;100706.34;4997374;28;20080;-62
2021/04/02 02:56:58;;;;;;;8.27;6.78;;;;;;;13.40;57.64;100709.78;4997101;28;20486;-62
2021/04/02 02:59:35;;;;;;;8.00;5.97;;;;;;;13.38;57.96;100699.34;4996422;28;20045;-63
2021/04/02 03:02:08;;;;;;;9.30;5.72;;;;;;;13.37;57.78;100709.75;4996404;28;20050;-61
2021/04/02 03:04:43;;;;;;;15.20;7.85;;;;;;;13.38;57.65;100703.69;4996124;28;20482;-61
2021/04/02 03:07:14;;;;;;;9.32;6.30;;;;;;;13.37;57.79;100707.16;4995964;28;20034;-63
2021/04/02 03:09:53;;;;;;;9.13;6.22;;;;;;;13.35;57.70;100707.09;4996175;28;20041;-63
2021/04/02 03:12:30;;;;;;;10.88;6.50;;;;;;;13.33;57.82;100708.81;4995957;28;20045;-63
2021/04/02 03:15:03;;;;;;;8.02;5.97;;;;;;;13.32;57.53;100701.84;4979666;28;20034;-63
2021/04/02 03:17:41;;;;;;;12.75;6.97;;;;;;;13.31;57.53;100700.13;4997311;28;20042;-63
2021/04/02 03:20:15;;;;;;;8.48;6.30;;;;;;;13.30;57.42;100694.88;4996106;28;20053;-63
2021/04/02 03:22:49;;;;;;;7.90;6.40;;;;;;;13.29;57.55;100704.41;4997104;28;20421;-63
2021/04/02 03:25:28;;;;;;;8.93;6.45;;;;;;;13.27;57.54;100694.81;4997015;28;20033;-63
2021/04/02 03:27:57;;;;;;;7.53;5.80;;;;;;;13.24;57.40;100696.50;4997407;28;20034;-63
2021/04/02 03:30:33;;;;;;;9.30;6.40;;;;;;;13.23;57.41;100699.09;4996632;28;20042;-63
2021/04/02 03:33:24;;;;;;;8.93;5.90;;;;;;;13.20;57.49;100697.34;4979201;28;20038;-63
2021/04/02 03:36:02;;;;;;;13.13;6.90;;;;;;;13.19;57.49;100694.69;4996765;28;20121;-64
2021/04/02 03:38:41;;;;;;;12.90;6.85;;;;;;;13.18;57.69;100698.16;4978421;28;20097;-62
2021/04/02 03:41:13;;;;;;;7.88;6.40;;;;;;;13.16;57.54;100697.25;4996714;28;20034;-62
2021/04/02 03:43:47;;;;;;;12.85;6.32;;;;;;;13.14;57.60;100699.84;4978784;28;20113;-63
2021/04/02 03:46:25;;;;;;;8.20;5.80;;;;;;;13.13;57.85;100692.03;4996857;28;20066;-61
2021/04/02 03:49:01;;;;;;;7.68;6.28;;;;;;;13.12;57.49;100692.88;4996310;28;20117;-61
2021/04/02 03:51:34;;;;;;;10.02;7.28;;;;;;;13.10;57.67;100703.22;4995390;28;20042;-61
2021/04/02 03:54:12;;;;;;;8.35;6.28;;;;;;;13.09;57.50;100697.16;4995244;28;20089;-61
2021/04/02 03:56:46;;;;;;;8.90;7.03;;;;;;;13.08;57.80;100704.94;4995151;28;20117;-61
2021/04/02 03:59:25;;;;;;;8.50;6.00;;;;;;;13.04;57.86;100693.59;4996796;28;20049;-63
2021/04/02 04:01:53;;;;;;;13.05;6.93;;;;;;;13.04;57.64;100701.41;4995977;28;20049;-61
2021/04/02 04:04:25;;;;;;;8.65;5.95;;;;;;;13.03;57.79;100699.66;4995003;28;20038;-61
2021/04/02 04:06:58;;;;;;;9.70;6.00;;;;;;;13.03;57.75;100702.25;4994905;28;20058;-61
2021/04/02 04:09:35;;;;;;;11.45;6.20;;;;;;;13.02;57.78;100704.84;4978691;28;20069;-61
2021/04/02 04:12:06;;;;;;;9.40;6.03;;;;;;;13.01;57.78;100706.56;4995919;28;20117;-61
2021/04/02 04:14:36;;;;;;;8.75;6.15;;;;;;;13.00;57.61;100706.53;4995836;28;20038;-61
2021/04/02 04:17:19;;;;;;;7.20;5.75;;;;;;;12.98;57.58;100709.13;4994781;28;20473;-61
2021/04/02 04:19:52;;;;;;;7.43;5.65;;;;;;;12.97;57.81;100709.09;4995748;28;20046;-62
2021/04/02 04:22:29;;;;;;;10.27;6.20;;;;;;;12.94;57.76;100705.59;4995879;28;20528;-61
2021/04/02 04:25:02;;;;;;;7.78;5.43;;;;;;;12.92;57.81;100711.63;4978803;28;20092;-61
2021/04/02 04:27:38;;;;;;;8.13;5.53;;;;;;;12.91;57.55;100707.25;4994981;28;20034;-62
2021/04/02 04:30:16;;;;;;;11.77;6.38;;;;;;;12.89;57.89;100704.66;4995256;28;20117;-62
2021/04/02 04:32:48;;;;;;;6.55;5.45;;;;;;;12.88;58.17;100715.00;4991954;28;20137;-62
2021/04/02 04:35:19;;;;;;;9.25;5.32;;;;;;;12.88;57.89;100721.09;4978428;28;20061;-62
2021/04/02 04:37:55;;;;;;;9.82;5.68;;;;;;;12.87;57.76;100721.06;4978070;28;20498;-62
2021/04/02 04:40:33;;;;;;;7.00;5.30;;;;;;;12.85;57.73;100715.84;4995716;28;20065;-61
2021/04/02 04:43:12;;;;;;;9.63;5.32;;;;;;;12.84;57.69;100724.50;4977980;28;20502;-61
2021/04/02 04:45:43;;;;;;;6.82;5.78;;;;;;;12.83;57.51;100716.69;4978380;28;20090;-63
2021/04/02 04:48:36;;;;;;;8.90;5.57;;;;;;;12.82;57.36;100727.94;4994127;28;20042;-63
2021/04/02 04:51:12;;;;;;;7.22;6.10;;;;;;;12.80;57.74;100727.88;4994005;28;20038;-62
2021/04/02 04:53:51;;;;;;;7.60;5.25;;;;;;;12.78;57.71;100729.56;4994501;28;20034;-63
2021/04/02 04:56:28;;;;;;;9.85;5.60;;;;;;;12.76;57.80;100739.97;4994159;28;20045;-63
2021/04/02 04:59:04;;;;;;;9.63;6.50;;;;;;;12.74;57.54;100736.47;4994051;28;20030;-63
2021/04/02 05:01:39;;;;;;;9.50;6.70;;;;;;;12.73;57.68;100741.63;4994831;28;20117;-63
2021/04/02 05:04:14;;;;;;;10.38;6.03;;;;;;;12.72;57.95;100738.16;4978123;28;20126;-63
2021/04/02 05:06:49;;;;;;;8.70;5.95;;;;;;;12.72;57.84;100743.34;4977819;28;20049;-63
2021/04/02 05:09:26;;;;;;;11.00;6.10;;;;;;;12.71;57.70;100733.78;4995141;28;20038;-63
2021/04/02 05:12:05;;;;;;;9.00;6.43;;;;;;;12.71;57.83;100731.19;4993670;28;20529;-63
2021/04/02 05:14:42;;;;;;;11.27;7.90;;;;;;;12.70;57.92;100733.78;4994801;28;20498;-63
2021/04/02 05:17:18;;;;;;;9.40;6.55;;;;;;;12.68;57.82;100733.75;4993608;28;20092;-63
2021/04/02 05:19:51;;;;;;;7.95;6.40;;;;;;;12.69;57.99;100737.22;4993797;28;20031;-63
2021/04/02 05:22:27;;;;;;;9.18;6.50;;;;;;;12.67;57.58;100732.00;4993567;28;20169;-63
2021/04/02 05:24:58;;;;;;;9.35;6.00;;;;;;;12.67;57.85;100736.31;4995189;28;20554;-63
2021/04/02 05:27:36;;;;;;;9.82;6.07;;;;;;;12.67;58.02;100745.00;4977209;28;20516;-63
2021/04/02 05:30:07;;;;;;;8.50;6.43;;;;;;;12.65;57.86;100741.50;4993793;28;20030;-63
2021/04/02 05:32:44;;;;;;;9.30;6.05;;;;;;;12.64;57.98;100730.22;4977407;28;20114;-63
2021/04/02 05:35:15;;;;;;;6.45;5.13;;;;;;;12.65;58.04;100749.31;4977057;28;20376;-63
2021/04/02 05:37:55;;;;;;;10.07;6.40;;;;;;;12.63;57.86;100757.06;4993441;28;20037;-63
2021/04/02 05:40:28;;;;;;;10.05;6.15;;;;;;;12.61;57.97;100742.28;4976770;28;20505;-63
2021/04/02 05:43:05;;;;;;;14.95;6.97;;;;;;;12.60;57.86;100746.63;4994496;28;20038;-63
2021/04/02 05:45:38;;;;;;;12.07;6.53;;;;;;;12.59;57.92;100754.38;4977018;28;20044;-63
2021/04/02 05:48:08;;;;;;;9.27;6.50;;;;;;;12.58;57.70;100750.91;4994410;28;20113;-63
2021/04/02 05:50:45;;;;;;;8.43;5.85;;;;;;;12.57;57.84;100753.47;4976865;28;20041;-63
2021/04/02 05:53:24;;;;;;;9.13;5.90;;;;;;;12.56;58.05;100759.50;4994415;28;20568;-63
2021/04/02 05:56:00;;;;;;;12.20;7.70;;;;;;;12.54;57.58;100762.09;4994067;28;20046;-63
2021/04/02 05:58:32;;;;;;;14.38;6.70;;;;;;;12.53;58.04;100764.69;4993988;28;20101;-62
2021/04/02 06:01:07;;;;;;;8.23;5.82;;;;;;;12.53;57.78;100762.06;4992837;28;20124;-63
2021/04/02 06:03:38;;;;;;;11.32;6.65;;;;;;;12.50;57.52;100768.06;4976991;28;20153;-63
2021/04/02 06:06:13;;;;;;;8.18;6.28;;;;;;;12.49;57.78;100769.81;4994090;28;20478;-63
2021/04/02 06:08:47;;;;;;;13.82;7.20;;;;;;;12.47;57.58;100766.28;4992897;28;20065;-63
2021/04/02 06:11:24;;;;;;;9.75;5.85;;;;;;;12.47;57.71;100763.69;4977121;28;20085;-63
2021/04/02 06:13:55;;;;;;;13.52;6.68;;;;;;;12.46;57.89;100774.03;4994371;28;20073;-62
2021/04/02 06:16:29;;;;;;;14.40;6.75;;;;;;;12.45;57.60;100772.31;4976995;28;20068;-63
2021/04/02 06:19:09;;;;;;;16.60;7.72;;;;;;;12.44;57.97;100768.84;4992845;28;20039;-63
2021/04/02 06:22:14;;;;;;;11.23;7.15;;;;;;;12.43;57.52;100780.06;4993176;28;20089;-63
2021/04/02 06:24:54;;;;;;;8.65;6.53;;;;;;;12.43;57.73;100776.63;4987724;28;20600;-62
2021/04/02 06:27:19;;;;;;;13.65;6.65;;;;;;;12.41;57.94;100783.50;4992982;28;20147;-63
2021/04/02 06:30:01;;;;;;;9.52;5.82;;;;;;;12.41;58.22;100780.91;4992678;28;20501;-63
2021/04/02 06:32:35;;;;;;;8.55;6.57;;;;;;;12.39;57.81;100782.59;4976852;28;20035;-62
2021/04/02 06:35:10;;;;;;;10.27;6.18;;;;;;;12.38;58.15;100780.84;4993844;28;20033;-63
2021/04/02 06:37:45;;;;;;;11.90;5.95;;;;;;;12.37;57.79;100779.97;4992791;28;20048;-63
2021/04/02 06:40:21;;;;;;;11.27;6.30;;;;;;;12.36;58.18;100778.22;4993187;28;20077;-63
2021/04/02 06:42:52;;;;;;;10.30;6.47;;;;;;;12.34;57.91;100777.31;4977045;28;20104;-63
2021/04/02 06:45:30;;;;;;;9.07;6.13;;;;;;;12.33;57.64;100781.59;4992683;28;20038;-62
2021/04/02 06:48:10;;;;;;;10.90;6.60;;;;;;;12.31;57.86;100790.22;4976101;28;20034;-63
2021/04/02 06:50:46;;;;;;;9.75;6.15;;;;;;;12.30;57.88;100785.88;4992456;28;20060;-63
2021/04/02 06:53:23;;;;;;;10.68;6.72;;;;;;;12.29;57.89;100787.59;4976700;28;20042;-63
2021/04/02 06:55:58;;;;;;;13.27;6.93;;;;;;;12.27;57.93;100791.91;4993876;28;20118;-63
2021/04/02 06:58:33;;;;;;;10.68;7.00;;;;;;;12.27;58.17;100791.00;4993604;28;20101;-63
2021/04/02 07:01:04;;;;;;;11.85;7.07;;;;;;;12.25;57.96;100790.09;4992119;28;20042;-63
2021/04/02 07:03:41;;;;;;;15.63;7.13;;;;;;;12.25;57.77;100792.69;4992419;28;20046;-63
2021/04/02 07:06:15;;;;;;;12.93;7.18;;;;;;;12.23;57.91;100783.97;4992117;28;20118;-63
2021/04/02 07:08:52;;;;;;;11.73;6.88;;;;;;;12.23;58.24;100791.78;4992384;28;20039;-63
2021/04/02 07:11:25;;;;;;;10.85;7.10;;;;;;;12.21;58.02;100789.16;4991998;28;20042;-63
2021/04/02 07:14:02;;;;;;;12.93;7.33;;;;;;;12.20;57.73;100784.81;4995034;28;20038;-63
2021/04/02 07:16:37;;;;;;;12.68;7.30;;;;;;;12.18;58.14;100789.97;4997355;28;20129;-63
2021/04/02 07:19:19;;;;;;;11.02;7.28;;;;;;;12.18;58.20;100784.78;4996782;28;20081;-63
2021/04/02 07:21:56;;;;;;;15.77;7.53;;;;;;;12.16;58.08;100786.47;4996813;28;20145;-63
2021/04/02 07:24:25;;;;;;;10.45;7.00;;;;;;;12.16;57.90;100789.06;4995679;28;20046;-63
2021/04/02 07:26:58;;;;;;;12.23;7.85;;;;;;;12.15;57.82;100779.50;4996740;28;20445;-63
2021/04/02 07:29:27;;;;;;;18.52;7.82;;;;;;;12.16;58.13;100785.56;4979433;28;20045;-63
2021/04/02 07:32:03;;;;;;;11.63;7.50;;;;;;;12.15;57.94;100778.63;4995134;28;20444;-63
2021/04/02 07:34:35;;;;;;;9.75;7.22;;;;;;;12.15;58.18;100783.81;4978995;28;20057;-62
2021/04/02 07:37:11;;;;;;;11.63;7.85;;;;;;;12.12;57.89;100774.25;4996784;28;20048;-62
2021/04/02 07:39:45;;;;;;;14.10;8.38;;;;;;;12.12;58.28;100788.97;4996895;28;20100;-62
2021/04/02 07:42:24;;;;;;;11.57;7.82;;;;;;;12.12;58.30;100789.84;4979405;28;20042;-62
2021/04/02 07:44:59;;;;;;;12.02;7.78;;;;;;;12.12;58.09;100791.56;4996333;28;20038;-62
2021/04/02 07:47:34;;;;;;;11.75;7.88;;;;;;;12.11;58.58;100795.00;4995796;28;20034;-62
2021/04/02 07:50:09;;;;;;;13.93;7.78;;;;;;;12.09;58.34;100800.16;4996565;28;20096;-62
2021/04/02 07:52:51;;;;;;;11.55;7.85;;;;;;;12.11;58.17;100795.00;4995007;28;20081;-62
2021/04/02 07:55:24;;;;;;;16.10;9.52;;;;;;;12.09;58.18;100796.69;4978664;28;20061;-63
2021/04/02 07:58:04;;;;;;;11.68;8.23;;;;;;;12.08;58.17;100797.53;4978650;28;20045;-62
2021/04/02 08:00:38;;;;;;;12.50;8.80;;;;;;;12.07;57.97;100808.78;4978729;28;20030;-62
2021/04/02 08:03:16;;;;;;;14.10;8.30;;;;;;;12.05;58.25;100806.16;4996427;28;20137;-62
2021/04/02 08:06:10;;;;;;;10.15;8.02;;;;;;;12.03;58.32;100803.50;4995714;28;20042;-62
2021/04/02 08:08:54;;;;;;;15.77;7.90;;;;;;;12.02;57.81;100811.28;4995190;28;20084;-62
2021/04/02 08:11:37;;;;;;;13.50;8.70;;;;;;;12.00;57.85;100811.22;4996332;28;20560;-62
2021/04/02 08:14:13;;;;;;;12.15;8.48;;;;;;;12.01;58.44;100812.97;4994624;28;20031;-61
2021/04/02 08:16:47;;;;;;;9.55;7.55;;;;;;;12.00;58.45;100811.22;4978052;28;20043;-61
2021/04/02 08:19:26;;;;;;;9.98;7.53;;;;;;;12.00;58.29;100824.22;4994602;28;20077;-63
2021/04/02 08:22:13;;;;;;;13.98;8.38;;;;;;;11.99;58.42;100819.00;4994859;28;20034;-61
2021/04/02 08:24:47;;;;;;;12.35;8.00;;;;;;;11.99;58.12;100819.84;4994223;28;20121;-63
2021/04/02 08:27:19;;;;;;;9.20;7.13;;;;;;;11.98;58.25;100822.41;4978635;28;20038;-63
2021/04/02 08:30:03;;;;;;;9.98;7.45;;;;;;;11.97;58.45;100831.03;4995809;28;20080;-63
2021/04/02 08:32:35;;;;;;;9.05;7.65;;;;;;;11.96;58.15;100831.88;4995778;28;20053;-63
2021/04/02 08:35:10;;;;;;;10.85;7.43;;;;;;;11.95;58.31;100827.50;4993766;28;20042;-63
2021/04/02 08:37:55;;;;;;;12.45;7.68;;;;;;;11.92;58.49;100835.22;4995684;28;20035;-63
2021/04/02 08:40:30;;;;;;;13.10;7.20;;;;;;;11.92;58.14;100835.22;4994556;28;20424;-63
2021/04/02 08:43:07;;;;;;;12.48;7.95;;;;;;;11.93;58.48;100842.19;4994469;28;20065;-62
2021/04/02 08:45:44;;;;;;;10.43;6.72;;;;;;;11.91;58.73;100842.16;4993762;28;20482;-63
2021/04/02 08:48:23;;;;;;;11.00;7.05;;;;;;;11.90;58.16;100847.34;4978096;28;20129;-63
2021/04/02 08:50:56;;;;;;;14.13;7.22;;;;;;;11.91;58.36;100856.88;4978073;28;20045;-63
2021/04/02 08:53:38;;;;;;;10.27;6.10;;;;;;;11.88;58.68;100849.88;4978150;28;20449;-63
2021/04/02 08:56:20;;;;;;;13.77;6.93;;;;;;;11.85;58.23;100848.09;4994393;28;20030;-63
2021/04/02 08:58:54;;;;;;;9.80;7.10;;;;;;;11.87;58.34;100850.72;4978079;28;20121;-63
2021/04/02 09:01:28;;;;;;;11.55;6.45;;;;;;;11.86;58.04;100849.84;4977981;28;20046;-63
2021/04/02 09:03:59;;;;;;;12.00;7.47;;;;;;;11.83;58.05;100851.50;4994071;28;20053;-63
2021/04/02 09:06:33;;;;;;;13.50;6.75;;;;;;;11.81;58.52;100854.06;4994017;28;20402;-63
2021/04/02 09:09:16;;;;;;;8.82;6.53;;;;;;;11.81;58.27;100853.19;4995047;28;20034;-63
2021/04/02 09:11:58;;;;;;;9.15;6.32;;;;;;;11.81;58.69;100848.84;4995113;28;20411;-63
2021/04/02 09:14:28;;;;;;;13.40;6.70;;;;;;;11.80;58.67;100849.69;4994969;28;20031;-63
2021/04/02 09:17:09;;;;;;;9.13;6.72;;;;;;;11.80;58.48;100854.03;4993819;28;20049;-63
2021/04/02 09:19:41;;;;;;;13.90;6.30;;;;;;;11.78;58.43;100853.09;4993978;28;20090;-63
2021/04/02 09:22:13;;;;;;;9.02;6.22;;;;;;;11.78;58.37;100846.19;4994401;28;20035;-63
2021/04/02 09:24:47;;;;;;;10.70;6.60;;;;;;;11.78;58.48;100848.78;4994813;28;20042;-63
2021/04/02 09:27:18;;;;;;;11.23;6.68;;;;;;;11.76;58.37;100831.41;4993261;28;20034;-64
2021/04/02 09:29:59;;;;;;;8.30;6.20;;;;;;;11.75;58.19;100833.16;4993683;28;20037;-63
2021/04/02 09:32:34;;;;;;;10.70;5.95;;;;;;;11.75;58.58;100840.94;4977477;28;20054;-61
2021/04/02 09:35:06;;;;;;;9.85;5.68;;;;;;;11.75;58.63;100842.63;4976369;28;20133;-61
2021/04/02 09:37:37;;;;;;;9.82;6.57;;;;;;;11.74;58.38;100844.38;4994162;28;20038;-62
2021/04/02 09:40:08;;;;;;;7.57;6.18;;;;;;;11.74;58.15;100839.19;4976833;28;20069;-61
2021/04/02 09:42:46;;;;;;;9.45;5.30;;;;;;;11.73;58.33;100842.63;4993804;28;20061;-62
2021/04/02 09:45:19;;;;;;;8.93;6.13;;;;;;;11.73;58.29;100840.03;4994242;28;20038;-62
2021/04/02 09:47:48;;;;;;;10.17;6.40;;;;;;;11.72;58.47;100838.25;4994382;28;20560;-62
2021/04/02 09:50:18;;;;;;;8.93;6.15;;;;;;;11.70;58.57;100834.75;4993710;28;20495;-62
2021/04/02 09:52:56;;;;;;;7.93;5.90;;;;;;;11.68;58.41;100839.03;4977526;28;20490;-62
2021/04/02 09:55:25;;;;;;;9.65;5.82;;;;;;;11.68;58.58;100842.47;4994473;28;20046;-62
2021/04/02 09:58:02;;;;;;;11.85;5.60;;;;;;;11.69;58.60;100840.78;4976864;28;20126;-62
2021/04/02 10:00:39;;;;;;;8.23;5.30;;;;;;;11.68;58.41;100845.06;4993175;28;20073;-62
2021/04/02 10:03:16;;;;;;;9.25;5.10;;;;;;;11.68;58.69;100844.22;4994049;28;20116;-62
2021/04/02 10:08:21;;;;;;;8.13;5.05;;;;;;;11.67;58.43;100843.34;5111254;27;20144;-62
2021/04/02 10:10:56;;;;;;;7.75;4.97;;;;;;;11.68;58.93;100841.63;5111332;28;20035;-62
2021/04/02 10:13:30;;;;;;;;;;;;;;;11.65;58.63;100846.72;5093474;28;20040;-62
2021/04/02 10:16:01;;;;;;;6.97;5.00;;;;;;;11.65;58.63;100844.13;5126941;27;19971;-62
2021/04/02 10:18:39;;;;;;;9.60;4.70;;;;;;;11.65;58.63;100838.94;5093779;28;20293;-61
2021/04/02 10:21:08;;;;;;;9.25;5.63;;;;;;;11.63;58.68;100840.63;5109867;28;20499;-61
2021/04/02 10:23:40;;;;;;;10.77;5.13;;;;;;;11.64;59.07;100845.88;5092804;28;20081;-62
2021/04/02 10:26:10;;;;;;;12.85;6.35;;;;;;;11.62;58.68;100842.34;5109778;28;20412;-62
2021/04/02 10:28:42;;;;;;;7.35;4.70;;;;;;;11.61;58.58;100850.97;5109822;28;20035;-61
2021/04/02 10:31:13;;;;;;;9.32;4.80;;;;;;;11.57;58.82;100850.03;5093140;28;20047;-62
2021/04/02 10:33:49;;;;;;;10.10;5.35;;;;;;;11.57;58.48;100852.63;5109928;28;20123;-62
2021/04/02 10:36:20;;;;;;;10.65;4.90;;;;;;;11.53;58.84;100847.28;5109675;28;20032;-61
2021/04/02 10:38:54;;;;;;;8.82;5.35;;;;;;;11.53;58.70;100837.81;5093009;28;20035;-61
2021/04/02 10:41:26;;;;;;;7.55;4.30;;;;;;;11.56;58.73;100843.06;5109674;28;20040;-62
2021/04/02 10:43:59;;;;;;;6.15;4.75;;;;;;;11.56;58.34;100840.47;5109444;28;20032;-62
2021/04/02 10:46:27;;;;;;;12.50;5.63;;;;;;;11.53;58.92;100835.22;5092542;28;20028;-61
2021/04/02 10:49:03;;;;;;;12.45;5.65;;;;;;;11.54;58.62;100829.19;5109100;28;20673;-61
2021/04/02 10:51:32;;;;;;;;;;;;;;;11.52;58.72;100823.06;5092581;28;20040;-62
2021/04/02 10:54:08;;;;;;;6.32;4.35;;;;;;;11.54;58.52;100828.28;5144269;27;19960;-62
2021/04/02 10:56:40;;;;;;;10.13;5.17;;;;;;;11.53;58.75;100834.31;5109471;28;20114;-61
2021/04/02 10:59:12;;;;;;;10.43;5.68;;;;;;;11.52;58.47;100838.66;5109158;28;20479;-62
2021/04/02 11:01:42;;;;;;;5.82;4.60;;;;;;;11.52;58.99;100846.44;5092507;28;20411;-62
2021/04/02 11:04:13;;;;;;;8.30;5.25;;;;;;;11.53;58.60;100847.28;5110266;28;20036;-62
2021/04/02 11:06:44;;;;;;;7.72;4.55;;;;;;;11.53;58.95;100839.50;5092084;28;20430;-62
2021/04/02 11:09:16;;;;;;;7.45;5.07;;;;;;;11.54;58.50;100836.06;5091836;28;20483;-62
2021/04/02 11:11:47;;;;;;;6.53;4.85;;;;;;;11.53;58.74;100840.41;5109650;28;20043;-62
2021/04/02 11:14:18;;;;;;;10.63;5.03;;;;;;;11.51;58.55;100842.06;5092469;28;20134;-62
2021/04/02 11:16:49;;;;;;;6.85;5.05;;;;;;;11.53;58.87;100840.41;5092365;28;20089;-61
2021/04/02 11:19:20;;;;;;;7.07;4.55;;;;;;;11.51;58.77;100849.00;5079749;28;20385;-62
2021/04/02 11:21:51;;;;;;;6.63;4.90;;;;;;;11.50;58.85;100844.66;5078521;28;20146;-61
2021/04/02 11:24:26;;;;;;;6.13;3.78;;;;;;;11.52;58.95;100845.56;5095892;28;20035;-61
2021/04/02 11:26:54;;;;;;;6.90;4.85;;;;;;;11.52;58.82;100838.66;5078540;28;20036;-61
2021/04/02 11:29:27;;;;;;;8.35;4.13;;;;;;;11.52;59.01;100833.44;5095425;28;20071;-62
2021/04/02 11:31:58;;;;;;;7.20;4.68;;;;;;;11.53;59.10;100843.00;5095362;28;20044;-62
2021/04/02 11:34:31;;;;;;;6.13;4.38;;;;;;;11.53;58.93;100847.28;5095095;28;20059;-62
2021/04/02 11:36:59;;;;;;;7.22;4.80;;;;;;;11.52;58.71;100843.84;5094961;28;20043;-62
2021/04/02 11:39:31;;;;;;;7.50;5.05;;;;;;;11.52;58.64;100840.38;5096501;28;20036;-61
2021/04/02 11:42:05;;;;;;;7.68;4.88;;;;;;;11.53;58.71;100842.09;5094768;28;20403;-62
2021/04/02 11:44:37;;;;;;;;;;;;;;;11.50;58.82;100842.91;5095394;28;20040;-62
2021/04/02 11:47:09;;;;;;;6.97;4.43;;;;;;;11.53;58.75;100842.09;5094391;28;19938;-62
2021/04/02 11:49:43;;;;;;;8.40;4.70;;;;;;;11.54;58.62;100834.38;5077991;28;20036;-62
2021/04/02 11:52:15;;;;;;;;;;;;;;;11.52;58.76;100833.44;5095064;28;20036;-62
2021/04/02 11:54:48;;;;;;;8.45;4.97;;;;;;;11.53;58.80;100827.41;5111885;28;19962;-62
2021/04/02 11:57:22;;;;;;;7.22;5.03;;;;;;;11.54;59.21;100826.59;5094684;28;20070;-62
2021/04/02 11:59:53;;;;;;;7.28;4.05;;;;;;;11.54;59.21;100825.69;5077688;28;20054;-64
2021/04/02 12:02:27;;;;;;;;;;;;;;;11.52;58.64;100825.66;5129291;27;20131;-64